Time;durP1;ratioP1;P1;durP2;ratioP2;P2;SDS_P1;SDS_P2;PMS_P1;PMS_P2;Temp;Humidity;BMP_temperature;BMP_pressure;BME280_temperature;BME280_humidity;BME280_pressure;Samples;Min_cycle;Max_cycle;Signal;HPM_P1;HPM_P2
2022/10/19 00:01:01;;;;;;;9.73;5.30;;;11.80;99.90;;;;;;5075133;28;20515;-57
2022/10/19 00:03:27;;;;;;;8.33;4.93;;;11.80;99.90;;;;;;5073515;28;20448;-59
2022/10/19 00:05:53;;;;;;;10.83;5.30;;;11.80;99.90;;;;;;5079263;28;20444;-58
2022/10/19 00:08:18;;;;;;;8.63;5.57;;;11.80;99.90;;;;;;5081855;28;20190;-57
2022/10/19 00:10:44;;;;;;;13.60;6.07;;;11.70;99.90;;;;;;5077046;28;20193;-57
2022/10/19 00:13:10;;;;;;;9.50;5.90;;;11.70;99.90;;;;;;5080760;28;20200;-59
2022/10/19 00:15:39;;;;;;;10.23;5.30;;;11.70;99.90;;;;;;5074024;28;20189;-58
2022/10/19 00:18:06;;;;;;;6.97;5.00;;;11.70;99.90;;;;;;5074271;28;20177;-57
2022/10/19 00:20:32;;;;;;;11.10;5.57;;;11.70;99.90;;;;;;5076994;28;20493;-57
2022/10/19 00:22:57;;;;;;;9.10;5.20;;;11.70;99.90;;;;;;5080326;28;20647;-55
2022/10/19 00:25:23;;;;;;;7.93;5.10;;;11.60;99.90;;;;;;5075267;28;20802;-61
2022/10/19 00:27:50;;;;;;;8.30;5.47;;;11.60;99.90;;;;;;5077842;28;20182;-56
2022/10/19 00:30:15;;;;;;;9.93;5.83;;;11.60;99.90;;;;;;5073979;28;20237;-57
2022/10/19 00:32:41;;;;;;;11.53;5.37;;;11.60;99.90;;;;;;5073619;28;20486;-57
2022/10/19 00:35:07;;;;;;;11.80;5.93;;;11.60;99.90;;;;;;5074498;28;20202;-57
2022/10/19 00:37:32;;;;;;;12.97;6.17;;;11.60;99.90;;;;;;5078149;28;20201;-57
2022/10/19 00:39:58;;;;;;;13.37;5.63;;;11.60;99.90;;;;;;5079499;28;20725;-57
2022/10/19 00:42:24;;;;;;;8.63;5.77;;;11.60;99.90;;;;;;5076858;28;20199;-57
2022/10/19 00:44:49;;;;;;;7.90;5.47;;;11.50;99.90;;;;;;5086273;28;20593;-56
2022/10/19 00:47:17;;;;;;;8.53;5.43;;;11.50;99.90;;;;;;5088041;28;20652;-56
2022/10/19 00:49:45;;;;;;;13.90;6.50;;;11.50;99.90;;;;;;5099122;28;20211;-57
2022/10/19 00:52:16;;;;;;;16.47;6.07;;;11.50;99.90;;;;;;5080994;28;20424;-58
2022/10/19 00:54:44;;;;;;;14.30;6.37;;;11.60;99.90;;;;;;5076700;28;20448;-57
2022/10/19 00:57:11;;;;;;;9.80;5.70;;;11.60;99.90;;;;;;5079809;28;20427;-57
2022/10/19 00:59:39;;;;;;;18.20;6.10;;;11.50;99.90;;;;;;5076420;28;20766;-58
2022/10/19 01:02:05;;;;;;;14.23;7.13;;;11.50;99.90;;;;;;5078658;28;20427;-57
2022/10/19 01:04:34;;;;;;;16.43;6.63;;;11.50;99.90;;;;;;5079882;28;20483;-58
2022/10/19 01:07:03;;;;;;;13.40;6.47;;;11.50;99.90;;;;;;5079447;28;20413;-57
2022/10/19 01:09:29;;;;;;;10.30;6.50;;;11.50;99.90;;;;;;5084112;28;20419;-57
2022/10/19 01:12:06;;;;;;;10.37;6.87;;;11.50;99.90;;;;;;5081529;28;20424;-58
2022/10/19 01:15:01;;;;;;;14.40;7.30;;;11.50;99.90;;;;;;5081401;28;20209;-57
2022/10/19 01:17:58;;;;;;;10.27;6.47;;;11.50;99.90;;;;;;5077560;28;20427;-57
2022/10/19 01:20:43;;;;;;;9.97;7.03;;;11.50;99.90;;;;;;5081169;28;20510;-58
2022/10/19 01:23:38;;;;;;;10.00;6.97;;;11.60;99.90;;;;;;5076527;28;20447;-57
2022/10/19 01:26:23;;;;;;;15.33;7.43;;;11.60;99.90;;;;;;5076789;28;20439;-58
2022/10/19 01:28:57;;;;;;;10.33;6.57;;;11.60;99.90;;;;;;5091478;28;20434;-56
2022/10/19 01:31:58;;;;;;;11.33;7.13;;;11.60;99.90;;;;;;5074237;28;20439;-58
2022/10/19 01:34:31;;;;;;;8.93;6.70;;;11.60;99.90;;;;;;5078531;28;20486;-58
2022/10/19 01:37:16;;;;;;;8.17;6.13;;;11.60;99.90;;;;;;5077472;28;20423;-57
2022/10/19 01:39:57;;;;;;;10.50;6.80;;;11.60;99.90;;;;;;5082430;28;20420;-56
2022/10/19 01:42:29;;;;;;;9.97;6.47;;;11.70;99.90;;;;;;5080166;28;20943;-57
2022/10/19 01:45:06;;;;;;;7.83;5.87;;;11.70;99.90;;;;;;5076952;28;21072;-58
2022/10/19 01:47:40;;;;;;;9.10;5.83;;;11.70;99.90;;;;;;5077144;28;20518;-58
2022/10/19 01:50:13;;;;;;;9.20;6.00;;;11.80;99.90;;;;;;5079910;28;20427;-58
2022/10/19 01:52:40;;;;;;;10.47;5.87;;;11.80;99.90;;;;;;5079689;28;20555;-58
2022/10/19 01:55:08;;;;;;;8.80;6.43;;;11.80;99.90;;;;;;5079197;28;20445;-58
2022/10/19 01:57:38;;;;;;;9.90;7.83;;;11.80;99.90;;;;;;5081505;28;20434;-57
2022/10/19 02:00:06;;;;;;;15.60;6.47;;;11.80;99.90;;;;;;5078304;28;20874;-56
2022/10/19 02:02:36;;;;;;;10.20;6.93;;;11.80;99.90;;;;;;5077986;28;20425;-57
2022/10/19 02:05:04;;;;;;;8.50;6.40;;;11.80;99.90;;;;;;5077548;28;21182;-57
2022/10/19 02:07:30;;;;;;;6.60;5.33;;;11.80;99.90;;;;;;5082513;28;20434;-58
2022/10/19 02:09:56;;;;;;;15.10;5.90;;;11.80;99.90;;;;;;5088596;28;20419;-58
2022/10/19 02:12:23;;;;;;;9.77;5.90;;;11.90;99.90;;;;;;5078081;28;20843;-58
2022/10/19 02:14:54;;;;;;;7.03;5.63;;;11.90;99.90;;;;;;5084696;28;20209;-58
2022/10/19 02:17:30;;;;;;;14.17;6.80;;;11.90;99.90;;;;;;5080791;28;20530;-56
2022/10/19 02:19:57;;;;;;;9.53;5.93;;;11.90;99.90;;;;;;5079181;28;20427;-58
2022/10/19 02:22:23;;;;;;;10.97;6.33;;;11.90;99.90;;;;;;5082789;28;20555;-56
2022/10/19 02:24:49;;;;;;;14.30;6.50;;;11.90;99.90;;;;;;5081341;28;21075;-57
2022/10/19 02:27:15;;;;;;;13.43;6.60;;;11.90;99.90;;;;;;5087591;28;20652;-58
2022/10/19 02:29:41;;;;;;;11.27;7.07;;;11.90;99.90;;;;;;5082195;28;20174;-57
2022/10/19 02:32:07;;;;;;;7.40;5.27;;;11.90;99.90;;;;;;5079112;28;20441;-57
2022/10/19 02:34:35;;;;;;;10.30;6.70;;;11.90;99.90;;;;;;5080224;28;20214;-57
2022/10/19 02:37:01;;;;;;;10.80;5.47;;;11.90;99.90;;;;;;5078040;28;20966;-58
2022/10/19 02:39:26;;;;;;;8.23;6.03;;;11.90;99.90;;;;;;5077145;28;20428;-58
2022/10/19 02:42:10;;;;;;;9.23;6.80;;;12.00;99.90;;;;;;5081699;28;20170;-55
2022/10/19 02:44:46;;;;;;;9.57;6.07;;;12.00;99.90;;;;;;5083162;28;20190;-59
2022/10/19 02:47:19;;;;;;;8.00;6.03;;;12.00;99.90;;;;;;5090251;28;20422;-58
2022/10/19 02:49:46;;;;;;;10.77;6.20;;;12.00;99.90;;;;;;5088352;28;20465;-58
2022/10/19 02:52:13;;;;;;;7.83;5.90;;;12.10;99.90;;;;;;5079952;28;20428;-57
2022/10/19 02:54:41;;;;;;;7.33;5.43;;;12.10;99.90;;;;;;5087174;28;20463;-57
2022/10/19 02:57:22;;;;;;;7.37;5.93;;;12.10;99.90;;;;;;5084568;28;20435;-57
2022/10/19 02:59:49;;;;;;;7.57;5.90;;;12.10;99.90;;;;;;5087120;28;20438;-57
2022/10/19 03:02:15;;;;;;;10.30;6.33;;;12.10;99.90;;;;;;5085124;28;20423;-59
2022/10/19 03:04:43;;;;;;;8.03;6.20;;;12.10;99.90;;;;;;5084697;28;20466;-57
2022/10/19 03:07:10;;;;;;;7.47;6.00;;;12.20;99.90;;;;;;5083901;28;20416;-57
2022/10/19 03:09:36;;;;;;;8.50;6.10;;;12.10;99.90;;;;;;5077819;28;20429;-58
2022/10/19 03:12:02;;;;;;;12.93;6.47;;;12.10;99.90;;;;;;5085072;28;20785;-57
2022/10/19 03:14:27;;;;;;;7.23;5.63;;;12.20;99.90;;;;;;5083356;28;20225;-59
2022/10/19 03:16:53;;;;;;;8.77;5.60;;;12.10;99.90;;;;;;5080843;28;20423;-57
2022/10/19 03:19:19;;;;;;;7.20;5.60;;;12.20;99.90;;;;;;5082956;28;20558;-57
2022/10/19 03:21:45;;;;;;;8.23;5.60;;;12.20;99.90;;;;;;5082852;28;20313;-56
2022/10/19 03:24:10;;;;;;;11.03;5.80;;;12.30;99.90;;;;;;5083829;28;20447;-58
2022/10/19 03:26:36;;;;;;;12.83;6.40;;;12.30;99.90;;;;;;5079629;28;20174;-58
2022/10/19 03:29:02;;;;;;;7.13;5.30;;;12.30;99.90;;;;;;5082426;28;20537;-57
2022/10/19 03:31:27;;;;;;;15.63;6.60;;;12.30;99.90;;;;;;5081272;28;20181;-58
2022/10/19 03:33:53;;;;;;;17.80;6.20;;;12.40;99.90;;;;;;5086354;28;20205;-57
2022/10/19 03:36:25;;;;;;;9.90;5.80;;;12.40;99.90;;;;;;5082947;28;20590;-57
2022/10/19 03:38:52;;;;;;;8.80;6.07;;;12.40;99.90;;;;;;5077705;28;20309;-57
2022/10/19 03:41:19;;;;;;;7.83;5.67;;;12.40;99.90;;;;;;5082134;28;20428;-57
2022/10/19 03:43:45;;;;;;;11.57;5.90;;;12.40;99.90;;;;;;5086341;28;20459;-58
2022/10/19 03:46:10;;;;;;;6.43;5.30;;;12.50;99.90;;;;;;5081543;28;20435;-56
2022/10/19 03:48:36;;;;;;;7.40;5.60;;;12.50;99.90;;;;;;5081437;28;20184;-58
2022/10/19 03:51:04;;;;;;;14.77;5.90;;;12.50;99.90;;;;;;5079199;28;20261;-58
2022/10/19 03:53:30;;;;;;;14.27;6.97;;;12.50;99.90;;;;;;5075464;28;20255;-57
2022/10/19 03:56:07;;;;;;;8.27;5.73;;;12.50;99.90;;;;;;5075394;28;20437;-57
2022/10/19 03:58:35;;;;;;;7.80;6.37;;;12.50;99.90;;;;;;5079071;28;20642;-57
2022/10/19 04:01:01;;;;;;;9.23;5.97;;;12.40;99.90;;;;;;5077426;28;20532;-58
2022/10/19 04:03:27;;;;;;;10.50;6.87;;;12.40;99.90;;;;;;5075688;28;20608;-56
2022/10/19 04:06:01;;;;;;;12.30;7.00;;;12.50;99.90;;;;;;5075822;28;20514;-55
2022/10/19 04:08:27;;;;;;;10.70;6.60;;;12.40;99.90;;;;;;5082375;28;20189;-57
2022/10/19 04:11:01;;;;;;;9.30;7.23;;;12.50;99.90;;;;;;5079187;28;20454;-57
2022/10/19 04:13:27;;;;;;;13.73;8.13;;;12.50;99.90;;;;;;5074040;28;20300;-57
2022/10/19 04:15:52;;;;;;;19.23;8.77;;;12.60;99.90;;;;;;5081425;28;20436;-58
2022/10/19 04:18:18;;;;;;;21.70;11.57;;;12.60;99.90;;;;;;5078667;28;20680;-56
2022/10/19 04:20:43;;;;;;;19.00;10.50;;;12.60;99.90;;;;;;5080941;28;20202;-55
2022/10/19 04:23:09;;;;;;;18.60;11.07;;;12.70;99.90;;;;;;5075296;28;20246;-56
2022/10/19 04:25:35;;;;;;;17.20;10.50;;;12.70;99.90;;;;;;5078936;28;20182;-56
2022/10/19 04:28:00;;;;;;;15.23;9.00;;;12.70;99.90;;;;;;5078528;28;20163;-55
2022/10/19 04:30:26;;;;;;;13.37;9.73;;;12.80;99.90;;;;;;5077305;28;20178;-56
2022/10/19 04:32:51;;;;;;;19.17;10.00;;;12.80;99.90;;;;;;5073090;28;20254;-54
2022/10/19 04:35:17;;;;;;;21.03;12.97;;;12.80;99.90;;;;;;5078816;28;20220;-54
2022/10/19 04:37:43;;;;;;;23.00;13.00;;;12.80;99.90;;;;;;5077005;28;20198;-56
2022/10/19 04:40:09;;;;;;;28.73;13.33;;;12.90;99.90;;;;;;5072057;28;20186;-55
2022/10/19 04:42:35;;;;;;;24.70;14.20;;;12.90;99.90;;;;;;5072576;28;20174;-54
2022/10/19 04:45:01;;;;;;;21.60;12.87;;;13.00;99.90;;;;;;5080569;28;20853;-54
2022/10/19 04:47:28;;;;;;;21.20;13.57;;;13.00;99.90;;;;;;5081849;28;20515;-55
2022/10/19 04:49:54;;;;;;;21.87;13.70;;;13.00;99.90;;;;;;5083511;28;20192;-54
2022/10/19 04:52:19;;;;;;;21.70;12.70;;;13.00;99.90;;;;;;5077454;28;21330;-55
2022/10/19 04:54:45;;;;;;;22.80;13.53;;;13.00;99.90;;;;;;5079246;28;20205;-54
2022/10/19 04:57:11;;;;;;;30.53;15.53;;;13.00;99.90;;;;;;5081330;28;20276;-55
2022/10/19 04:59:37;;;;;;;21.67;13.20;;;13.10;99.90;;;;;;5078637;28;20170;-54
2022/10/19 05:02:02;;;;;;;24.37;15.27;;;13.10;99.90;;;;;;5075494;28;20516;-55
2022/10/19 05:04:28;;;;;;;21.33;13.47;;;13.10;99.90;;;;;;5078501;28;20287;-55
2022/10/19 05:06:54;;;;;;;22.63;12.63;;;13.10;99.90;;;;;;5072536;28;20632;-55
2022/10/19 05:09:19;;;;;;;19.70;12.93;;;13.10;99.90;;;;;;5080809;28;20250;-55
2022/10/19 05:11:47;;;;;;;25.03;12.83;;;13.20;99.90;;;;;;5078633;28;20239;-54
2022/10/19 05:14:13;;;;;;;22.93;13.77;;;13.20;99.90;;;;;;5079867;28;20202;-56
2022/10/19 05:16:39;;;;;;;25.10;14.07;;;13.20;99.90;;;;;;5082915;28;20484;-55
2022/10/19 05:19:04;;;;;;;22.60;13.83;;;13.20;99.90;;;;;;5083795;28;20189;-55
2022/10/19 05:21:30;;;;;;;23.57;12.67;;;13.20;99.90;;;;;;5078442;28;20197;-54
2022/10/19 05:23:56;;;;;;;22.30;14.33;;;13.20;99.90;;;;;;5086922;28;20185;-55
2022/10/19 05:26:24;;;;;;;27.17;15.20;;;13.30;99.90;;;;;;5084434;28;20608;-56
2022/10/19 05:28:56;;;;;;;35.00;15.07;;;13.30;99.90;;;;;;5085024;28;20436;-52
2022/10/19 05:31:23;;;;;;;24.50;15.53;;;13.30;99.90;;;;;;5072425;28;20440;-51
2022/10/19 05:33:49;;;;;;;25.20;15.67;;;13.30;99.90;;;;;;5073095;28;20468;-50
2022/10/19 05:36:27;;;;;;;38.17;14.50;;;13.30;99.90;;;;;;5081625;28;20439;-50
2022/10/19 05:38:57;;;;;;;32.30;14.10;;;13.40;99.90;;;;;;5084968;28;20459;-50
2022/10/19 05:41:24;;;;;;;24.00;13.10;;;13.40;99.90;;;;;;5073994;28;20459;-55
2022/10/19 05:43:55;;;;;;;22.60;12.80;;;13.40;99.90;;;;;;5086284;28;20894;-55
2022/10/19 05:46:21;;;;;;;27.00;13.50;;;13.40;99.90;;;;;;5090120;28;20420;-55
2022/10/19 05:48:47;;;;;;;25.13;15.00;;;13.40;99.90;;;;;;5083262;28;20419;-55
2022/10/19 05:51:18;;;;;;;26.87;14.07;;;13.40;99.90;;;;;;5091393;28;20845;-55
2022/10/19 05:53:44;;;;;;;27.90;14.80;;;13.40;99.90;;;;;;5078708;28;20255;-55
2022/10/19 05:56:18;;;;;;;26.50;14.30;;;13.40;99.90;;;;;;5081762;28;20428;-55
2022/10/19 05:58:44;;;;;;;23.00;14.17;;;13.40;99.90;;;;;;5090138;28;20403;-54
2022/10/19 06:01:10;;;;;;;24.60;13.10;;;13.40;99.90;;;;;;5088653;28;21007;-54
2022/10/19 06:03:36;;;;;;;21.03;13.10;;;13.50;99.90;;;;;;5089309;28;20190;-54
2022/10/19 06:06:03;;;;;;;23.77;12.90;;;13.50;99.90;;;;;;5075358;28;20969;-54
2022/10/19 06:08:29;;;;;;;18.70;12.70;;;13.50;99.90;;;;;;5070562;28;20171;-55
2022/10/19 06:11:08;;;;;;;17.87;11.83;;;13.50;99.90;;;;;;5084013;28;20432;-54
2022/10/19 06:13:34;;;;;;;20.40;12.00;;;13.50;99.90;;;;;;5087931;28;20201;-54
2022/10/19 06:15:59;;;;;;;21.47;13.33;;;13.50;99.90;;;;;;5091202;28;20392;-54
2022/10/19 06:18:25;;;;;;;21.43;12.57;;;13.50;99.90;;;;;;5089669;28;20431;-54
2022/10/19 06:20:51;;;;;;;27.50;12.50;;;13.50;99.90;;;;;;5086286;28;20166;-55
2022/10/19 06:23:17;;;;;;;17.27;11.33;;;13.50;99.90;;;;;;5071700;28;20178;-55
2022/10/19 06:25:43;;;;;;;20.20;11.50;;;13.50;99.90;;;;;;5090903;28;20761;-54
2022/10/19 06:28:09;;;;;;;18.83;11.20;;;13.50;99.90;;;;;;5090240;28;20227;-54
2022/10/19 06:30:39;;;;;;;22.07;11.40;;;13.50;99.90;;;;;;5082196;28;20227;-55
2022/10/19 06:33:05;;;;;;;34.60;12.80;;;13.50;99.90;;;;;;5083415;28;20941;-55
2022/10/19 06:35:31;;;;;;;22.60;12.23;;;13.50;99.90;;;;;;5090730;28;20497;-55
2022/10/19 06:37:56;;;;;;;29.63;13.37;;;13.50;99.90;;;;;;5089894;28;20564;-54
2022/10/19 06:40:23;;;;;;;23.30;12.73;;;13.50;99.90;;;;;;5083367;28;20201;-55
2022/10/19 06:42:49;;;;;;;19.27;12.20;;;13.50;99.90;;;;;;5068274;28;20567;-54
2022/10/19 06:45:14;;;;;;;27.30;13.10;;;13.50;99.90;;;;;;5076504;28;20555;-54
2022/10/19 06:47:40;;;;;;;23.63;12.13;;;13.60;99.90;;;;;;5084858;28;20185;-54
2022/10/19 06:50:06;;;;;;;26.23;12.33;;;13.60;99.90;;;;;;5087776;28;20192;-54
2022/10/19 06:52:33;;;;;;;21.40;11.60;;;13.60;99.90;;;;;;5088948;28;20196;-55
2022/10/19 06:54:59;;;;;;;21.03;12.20;;;13.60;99.90;;;;;;5086000;28;20992;-54
2022/10/19 06:57:24;;;;;;;24.27;12.27;;;13.70;99.90;;;;;;5082119;28;20447;-55
2022/10/19 06:59:50;;;;;;;29.07;12.20;;;13.70;99.90;;;;;;5087501;28;20638;-54
2022/10/19 07:02:16;;;;;;;25.20;12.87;;;13.70;99.90;;;;;;5087448;28;20208;-54
2022/10/19 07:04:41;;;;;;;22.00;12.47;;;13.70;99.90;;;;;;5087617;28;20205;-54
2022/10/19 07:07:07;;;;;;;20.90;12.83;;;13.70;99.90;;;;;;5089357;28;20181;-55
2022/10/19 07:09:33;;;;;;;25.50;13.53;;;13.70;99.90;;;;;;5089623;28;20170;-55
2022/10/19 07:11:58;;;;;;;22.27;11.80;;;13.70;99.90;;;;;;5086628;28;20177;-55
2022/10/19 07:14:27;;;;;;;23.63;12.57;;;13.70;99.90;;;;;;5089114;28;20966;-54
2022/10/19 07:16:53;;;;;;;20.80;11.60;;;13.70;99.90;;;;;;5086215;28;20257;-54
2022/10/19 07:19:18;;;;;;;21.50;12.00;;;13.70;99.90;;;;;;5084556;28;20467;-54
2022/10/19 07:21:44;;;;;;;20.67;11.03;;;13.70;99.90;;;;;;5081299;28;20178;-54
2022/10/19 07:24:10;;;;;;;17.93;10.47;;;13.70;99.90;;;;;;5077195;28;20665;-55
2022/10/19 07:26:36;;;;;;;20.10;11.33;;;13.80;99.90;;;;;;5069083;28;20492;-55
2022/10/19 07:29:02;;;;;;;21.97;12.17;;;13.80;99.90;;;;;;5088118;28;20182;-54
2022/10/19 07:31:29;;;;;;;22.30;12.00;;;13.80;99.90;;;;;;5079556;28;20433;-55
2022/10/19 07:33:57;;;;;;;20.50;11.00;;;13.80;99.90;;;;;;5087475;28;20702;-55
2022/10/19 07:36:24;;;;;;;25.43;10.23;;;13.90;99.90;;;;;;5088774;28;20399;-54
2022/10/19 07:38:49;;;;;;;15.60;10.40;;;13.90;99.90;;;;;;5085228;28;20454;-54
2022/10/19 07:41:17;;;;;;;21.60;10.10;;;13.90;99.90;;;;;;5088300;28;20890;-54
2022/10/19 07:43:44;;;;;;;18.83;10.80;;;13.90;99.90;;;;;;5087028;28;20202;-54
2022/10/19 07:46:15;;;;;;;15.93;9.53;;;13.90;99.90;;;;;;5089016;28;20949;-55
2022/10/19 07:48:41;;;;;;;14.50;8.90;;;13.90;99.90;;;;;;5075295;28;20910;-55
2022/10/19 07:51:08;;;;;;;19.20;9.30;;;13.90;99.90;;;;;;5068619;28;20407;-55
2022/10/19 07:53:35;;;;;;;16.83;9.90;;;13.90;99.90;;;;;;5067997;28;20543;-55
2022/10/19 07:56:15;;;;;;;17.60;9.70;;;13.90;99.90;;;;;;5075867;28;20439;-55
2022/10/19 07:58:41;;;;;;;17.83;9.67;;;14.00;99.90;;;;;;5088994;28;20514;-55
2022/10/19 08:01:12;;;;;;;14.97;9.30;;;14.00;99.90;;;;;;5088198;28;20455;-55
2022/10/19 08:03:38;;;;;;;14.90;9.33;;;14.00;99.90;;;;;;5084555;28;20838;-54
2022/10/19 08:06:07;;;;;;;15.13;9.50;;;14.00;99.90;;;;;;5086636;28;20513;-55
2022/10/19 08:08:33;;;;;;;16.47;8.80;;;14.00;99.90;;;;;;5088121;28;20560;-54
2022/10/19 08:11:09;;;;;;;12.70;8.07;;;14.10;99.90;;;;;;5088417;28;20408;-55
2022/10/19 08:13:35;;;;;;;18.80;8.50;;;14.10;99.90;;;;;;5087725;28;20628;-55
2022/10/19 08:16:01;;;;;;;15.97;8.80;;;14.10;99.90;;;;;;5087540;28;20872;-55
2022/10/19 08:18:26;;;;;;;15.73;8.73;;;14.10;99.90;;;;;;5085473;28;20707;-55
2022/10/19 08:20:52;;;;;;;13.17;7.90;;;14.10;99.90;;;;;;5088120;28;20174;-54
2022/10/19 08:23:17;;;;;;;17.30;8.33;;;14.10;99.90;;;;;;5074628;28;20675;-54
2022/10/19 08:25:43;;;;;;;12.50;7.23;;;14.20;99.90;;;;;;5068747;28;20729;-54
2022/10/19 08:28:09;;;;;;;20.40;9.00;;;14.20;99.90;;;;;;5076894;28;20186;-56
2022/10/19 08:30:35;;;;;;;14.83;8.47;;;14.20;99.90;;;;;;5087194;28;20237;-55
2022/10/19 08:33:03;;;;;;;19.33;8.00;;;14.20;99.90;;;;;;5086131;28;20228;-54
2022/10/19 08:35:30;;;;;;;13.13;8.50;;;14.30;99.90;;;;;;5088647;28;20503;-54
2022/10/19 08:37:56;;;;;;;11.67;6.90;;;14.30;99.90;;;;;;5085984;28;20432;-55
2022/10/19 08:40:26;;;;;;;12.93;7.90;;;14.40;99.90;;;;;;5086892;28;20751;-54
2022/10/19 08:42:58;;;;;;;15.80;7.73;;;14.40;99.90;;;;;;5069067;28;20413;-55
2022/10/19 08:45:45;;;;;;;15.53;7.83;;;14.40;99.90;;;;;;5078040;28;20478;-55
2022/10/19 08:48:29;;;;;;;15.47;7.63;;;14.50;99.90;;;;;;5085697;28;20937;-55
2022/10/19 08:50:56;;;;;;;15.17;7.83;;;14.50;99.90;;;;;;5085095;28;20460;-55
2022/10/19 08:53:41;;;;;;;15.43;7.07;;;14.60;99.90;;;;;;5087036;28;20467;-55
2022/10/19 08:56:29;;;;;;;11.57;7.20;;;14.60;99.90;;;;;;5082386;28;20431;-55
2022/10/19 08:58:58;;;;;;;10.17;6.60;;;14.60;99.90;;;;;;5086476;28;20419;-55
2022/10/19 09:01:45;;;;;;;13.23;7.00;;;14.70;99.90;;;;;;5086820;28;20462;-55
2022/10/19 09:04:21;;;;;;;11.63;6.73;;;14.70;99.90;;;;;;5087000;28;20799;-55
2022/10/19 09:07:18;;;;;;;14.17;6.80;;;14.80;99.90;;;;;;5071610;28;20427;-55
2022/10/19 09:09:50;;;;;;;17.10;7.10;;;14.80;99.90;;;;;;5087580;28;20494;-56
2022/10/19 09:12:22;;;;;;;12.40;7.50;;;14.80;99.90;;;;;;5083714;28;20542;-56
2022/10/19 09:14:59;;;;;;;9.80;6.57;;;14.90;99.90;;;;;;5077527;28;20478;-56
2022/10/19 09:17:26;;;;;;;10.40;7.50;;;14.90;99.90;;;;;;5078793;28;20523;-55
2022/10/19 09:19:52;;;;;;;15.33;7.93;;;15.00;99.90;;;;;;5086685;28;20439;-55
2022/10/19 09:22:30;;;;;;;12.53;6.60;;;15.00;99.90;;;;;;5086485;28;20465;-55
2022/10/19 09:25:04;;;;;;;11.07;7.10;;;15.10;99.90;;;;;;5086803;28;20212;-55
2022/10/19 09:27:39;;;;;;;9.73;7.40;;;15.20;99.90;;;;;;5085317;28;20562;-56
2022/10/19 09:30:14;;;;;;;10.17;6.70;;;15.20;99.90;;;;;;5081629;28;20415;-56
2022/10/19 09:32:40;;;;;;;8.67;6.30;;;15.30;99.90;;;;;;5077804;28;21055;-56
2022/10/19 09:35:20;;;;;;;10.67;6.80;;;15.40;99.90;;;;;;5082125;28;20508;-55
2022/10/19 09:37:49;;;;;;;12.00;7.63;;;15.40;99.90;;;;;;5071267;28;20454;-56
2022/10/19 09:40:22;;;;;;;8.87;6.60;;;15.50;99.90;;;;;;5087149;28;20500;-56
2022/10/19 09:42:56;;;;;;;12.80;6.63;;;15.60;99.90;;;;;;5085148;28;20468;-57
2022/10/19 09:45:59;;;;;;;11.80;7.10;;;15.60;99.90;;;;;;5086172;28;20550;-55
2022/10/19 09:48:32;;;;;;;8.40;6.40;;;15.70;99.90;;;;;;5081582;28;20427;-54
2022/10/19 09:51:00;;;;;;;12.67;7.20;;;15.80;99.90;;;;;;5078804;28;20454;-55
2022/10/19 09:53:27;;;;;;;8.90;6.43;;;15.90;99.90;;;;;;5085545;28;20552;-56
2022/10/19 09:56:01;;;;;;;8.47;6.57;;;16.00;99.90;;;;;;5086565;28;20412;-55
2022/10/19 09:58:29;;;;;;;8.07;5.87;;;16.10;99.90;;;;;;5085067;28;20450;-55
2022/10/19 10:00:56;;;;;;;15.67;6.60;;;16.30;99.90;;;;;;5079778;28;20437;-55
2022/10/19 10:03:42;;;;;;;13.30;6.47;;;16.40;99.90;;;;;;5073430;28;20450;-55
2022/10/19 10:06:12;;;;;;;10.67;6.30;;;16.40;99.90;;;;;;5076686;28;20487;-55
2022/10/19 10:08:49;;;;;;;11.73;6.80;;;16.50;99.90;;;;;;5086423;28;20432;-55
2022/10/19 10:11:29;;;;;;;9.33;6.63;;;16.60;99.90;;;;;;5084177;28;20585;-56
2022/10/19 10:13:56;;;;;;;9.93;6.10;;;16.80;99.90;;;;;;5085800;28;20458;-55
2022/10/19 10:16:28;;;;;;;8.20;5.60;;;16.90;99.90;;;;;;5085291;28;20535;-56
2022/10/19 10:18:57;;;;;;;10.67;6.80;;;17.10;99.90;;;;;;5084722;28;20427;-55
2022/10/19 10:21:44;;;;;;;10.93;6.57;;;17.30;99.90;;;;;;5086032;28;20468;-55
2022/10/19 10:24:09;;;;;;;8.93;5.97;;;17.40;99.90;;;;;;5066951;28;20556;-55
2022/10/19 10:26:41;;;;;;;7.80;5.83;;;17.50;99.90;;;;;;5079247;28;20436;-56
2022/10/19 10:29:28;;;;;;;9.67;5.70;;;17.70;99.90;;;;;;5088705;28;20173;-55
2022/10/19 10:32:06;;;;;;;8.87;6.10;;;17.90;99.90;;;;;;5088112;28;20620;-55
2022/10/19 10:34:58;;;;;;;7.13;5.60;;;18.10;99.90;;;;;;5079312;28;20977;-56
2022/10/19 10:37:32;;;;;;;7.97;5.80;;;18.30;99.90;;;;;;5090228;28;20949;-55
2022/10/19 10:39:59;;;;;;;12.30;6.50;;;18.30;99.90;;;;;;5088991;28;20485;-54
2022/10/19 10:42:39;;;;;;;9.53;5.87;;;18.30;99.90;;;;;;5075782;28;20416;-55
2022/10/19 10:45:31;;;;;;;13.93;5.40;;;18.30;99.90;;;;;;5087330;28;20995;-56
2022/10/19 10:48:10;;;;;;;7.73;5.07;;;18.20;99.90;;;;;;5077840;28;20432;-55
2022/10/19 10:50:37;;;;;;;12.33;5.50;;;18.30;99.90;;;;;;5088454;28;20517;-56
2022/10/19 10:53:26;;;;;;;9.30;6.07;;;18.30;99.90;;;;;;5087938;28;20482;-54
2022/10/19 10:55:55;;;;;;;10.03;5.37;;;18.40;99.90;;;;;;5089563;28;20479;-56
2022/10/19 10:58:35;;;;;;;7.57;5.73;;;18.60;99.90;;;;;;5086189;28;20519;-54
2022/10/19 11:01:06;;;;;;;5.90;5.10;;;18.80;99.90;;;;;;5072994;28;20510;-55
2022/10/19 11:03:34;;;;;;;8.13;5.00;;;19.00;99.90;;;;;;5071306;28;20436;-54
2022/10/19 11:06:01;;;;;;;6.40;4.93;;;19.20;99.90;;;;;;5077358;28;20431;-56
2022/10/19 11:08:49;;;;;;;6.63;4.83;;;19.30;99.90;;;;;;5086774;28;20930;-54
2022/10/19 11:11:22;;;;;;;9.33;5.40;;;19.60;99.90;;;;;;5080999;28;20526;-55
2022/10/19 11:14:07;;;;;;;10.30;4.50;;;19.90;99.90;;;;;;5078512;28;20463;-54
2022/10/19 11:16:38;;;;;;;9.10;4.83;;;20.30;99.90;;;;;;5083230;28;20419;-56
2022/10/19 11:19:34;;;;;;;4.33;3.90;;;20.70;99.70;;;;;;5080936;28;20491;-56
2022/10/19 11:22:34;;;;;;;9.50;5.60;;;21.10;98.10;;;;;;5079671;28;20428;-55
2022/10/19 11:25:15;;;;;;;8.70;4.70;;;21.50;93.70;;;;;;5078576;28;20455;-58
2022/10/19 11:27:45;;;;;;;5.80;4.50;;;21.60;90.30;;;;;;5080921;28;20485;-57
2022/10/19 11:30:12;;;;;;;7.30;4.47;;;21.90;88.50;;;;;;5074810;28;20424;-59
2022/10/19 11:32:47;;;;;;;7.23;4.80;;;22.00;80.80;;;;;;5077925;28;20435;-57
2022/10/19 11:35:29;;;;;;;5.30;4.07;;;21.90;77.80;;;;;;5078590;28;20447;-56
2022/10/19 11:38:09;;;;;;;6.90;4.17;;;21.90;78.40;;;;;;5085423;28;20893;-57
2022/10/19 11:40:44;;;;;;;6.03;4.20;;;22.50;72.90;;;;;;5078722;28;20945;-57
2022/10/19 11:43:40;;;;;;;8.83;4.00;;;23.00;67.80;;;;;;5079939;28;20423;-58
2022/10/19 11:46:29;;;;;;;4.07;3.67;;;23.60;65.00;;;;;;5080460;28;20217;-58
2022/10/19 11:49:07;;;;;;;4.93;3.83;;;24.30;61.80;;;;;;5082264;28;20178;-58
2022/10/19 11:51:56;;;;;;;3.70;3.40;;;24.80;59.30;;;;;;5075913;28;20173;-59
2022/10/19 11:54:25;;;;;;;11.77;3.50;;;25.30;57.90;;;;;;5078358;28;20608;-60
2022/10/19 11:57:43;;;;;;;5.53;3.88;;;25.60;56.50;;;;;;5077695;28;20541;-60
2022/10/19 12:00:17;;;;;;;3.72;3.38;;;25.90;55.40;;;;;;5060459;28;20190;-60
2022/10/19 12:03:01;;;;;;;4.35;3.42;;;26.20;54.40;;;;;;5071927;28;20811;-56
2022/10/19 12:05:41;;;;;;;5.40;3.75;;;26.30;53.40;;;;;;5081094;28;20228;-60
2022/10/19 12:08:22;;;;;;;4.18;3.78;;;26.50;52.00;;;;;;5079840;28;20258;-58
2022/10/19 12:11:23;;;;;;;4.45;3.80;;;26.10;52.20;;;;;;5078867;28;20167;-58
2022/10/19 12:13:58;;;;;;;8.23;4.07;;;26.30;52.70;;;;;;5016232;28;21002;-58
2022/10/19 12:16:34;;;;;;;5.80;4.20;;;26.60;51.90;;;;;;5071704;28;20187;-57
2022/10/19 12:19:03;;;;;;;6.75;3.70;;;27.00;51.10;;;;;;5080819;28;20611;-57
2022/10/19 12:21:59;;;;;;;4.80;3.90;;;27.30;50.20;;;;;;5079673;28;20686;-60
2022/10/19 12:24:28;;;;;;;5.13;3.30;;;27.20;50.40;;;;;;5075585;28;20217;-58
2022/10/19 12:26:54;;;;;;;4.63;3.35;;;27.10;50.30;;;;;;5080306;28;20204;-58
2022/10/19 12:29:32;;;;;;;3.78;2.85;;;26.90;50.10;;;;;;5081048;28;20189;-58
2022/10/19 12:32:00;;;;;;;3.47;2.85;;;26.70;50.50;;;;;;5074916;28;20181;-57
2022/10/19 12:34:35;;;;;;;4.03;2.92;;;26.50;51.00;;;;;;5081632;28;20203;-57
2022/10/19 12:37:25;;;;;;;4.28;3.88;;;26.30;51.40;;;;;;5078275;28;20180;-59
2022/10/19 12:40:08;;;;;;;3.88;3.42;;;26.40;50.60;;;;;;5076350;28;20199;-60
2022/10/19 12:43:03;;;;;;;4.60;2.92;;;26.40;50.30;;;;;;5075309;28;20178;-58
2022/10/19 12:45:34;;;;;;;4.40;4.00;;;26.40;50.80;;;;;;5081022;28;20216;-57
2022/10/19 12:48:11;;;;;;;4.22;3.63;;;26.30;51.00;;;;;;5077206;28;20174;-57
2022/10/19 12:50:49;;;;;;;4.85;3.67;;;26.30;51.10;;;;;;5075893;28;20214;-57
2022/10/19 12:53:29;;;;;;;5.43;4.05;;;26.30;51.00;;;;;;5073852;28;20602;-57
2022/10/19 12:56:18;;;;;;;12.23;4.32;;;26.20;51.10;;;;;;5079422;28;20173;-56
2022/10/19 12:58:43;;;;;;;7.32;4.60;;;25.80;51.90;;;;;;5079672;28;20191;-57